Time;durP1;ratioP1;P1;durP2;ratioP2;P2;SDS_P1;SDS_P2;PMS_P1;PMS_P2;Temp;Humidity;BMP_temperature;BMP_pressure;BME280_temperature;BME280_humidity;BME280_pressure;Samples;Min_cycle;Max_cycle;Signal;HPM_P1;HPM_P2
2023/09/23 00:01:33;;;;;;;20.75;6.65;;;;;;;20.81;100.00;99768.12;1455024;89;21516;-84
2023/09/23 00:04:01;;;;;;;19.05;7.15;;;;;;;20.80;100.00;99765.13;1456316;89;21530;-83
2023/09/23 00:06:27;;;;;;;15.53;7.42;;;;;;;20.79;100.00;99763.49;1457206;89;21456;-84
2023/09/23 00:08:55;;;;;;;23.25;6.78;;;;;;;20.78;100.00;99749.77;1455302;89;21656;-84
2023/09/23 00:11:22;;;;;;;29.02;8.53;;;;;;;20.76;100.00;99748.64;1459439;88;21398;-85
2023/09/23 00:13:48;;;;;;;20.52;6.75;;;;;;;20.75;100.00;99744.31;1454971;89;21663;-84
2023/09/23 00:16:15;;;;;;;27.05;8.28;;;;;;;20.76;100.00;99755.89;1458782;88;22342;-84
2023/09/23 00:18:43;;;;;;;21.73;6.65;;;;;;;20.78;100.00;99761.86;1459782;89;21552;-84
2023/09/23 00:21:11;;;;;;;17.95;6.80;;;;;;;20.80;100.00;99768.66;1456614;89;21652;-83
2023/09/23 00:23:38;;;;;;;18.30;7.25;;;;;;;20.85;100.00;99770.63;1435701;89;21376;-84
2023/09/23 00:26:06;;;;;;;21.52;7.35;;;;;;;20.87;100.00;99768.55;1434474;89;21515;-84
2023/09/23 00:28:33;;;;;;;23.57;7.75;;;;;;;20.89;100.00;99766.45;1460408;88;21471;-84
2023/09/23 00:31:11;;;;;;;15.25;6.42;;;;;;;20.92;100.00;99761.95;1459629;89;21542;-83
2023/09/23 00:33:38;;;;;;;13.90;7.42;;;;;;;20.94;100.00;99761.17;1462672;89;22013;-83
2023/09/23 00:36:07;;;;;;;15.43;6.12;;;;;;;20.95;100.00;99764.17;1460327;88;22352;-81
2023/09/23 00:38:33;;;;;;;26.68;6.15;;;;;;;20.96;100.00;99760.42;1467610;89;21515;-81
2023/09/23 00:41:00;;;;;;;21.27;6.53;;;;;;;20.98;100.00;99754.83;1457037;89;21375;-81
2023/09/23 00:43:26;;;;;;;22.98;7.42;;;;;;;21.00;100.00;99759.43;1455524;88;21471;-81
2023/09/23 00:45:56;;;;;;;19.15;6.85;;;;;;;21.02;100.00;99751.95;1458789;88;21324;-81
2023/09/23 00:48:23;;;;;;;24.85;7.30;;;;;;;21.04;100.00;99743.95;1444876;88;21412;-81
2023/09/23 00:50:52;;;;;;;33.92;9.48;;;;;;;21.04;100.00;99743.95;1455881;89;21361;-81
2023/09/23 00:53:20;;;;;;;24.70;7.47;;;;;;;21.04;100.00;99742.60;1458169;89;21593;-81
2023/09/23 00:55:52;;;;;;;25.08;9.50;;;;;;;21.03;100.00;99745.02;1459541;89;21575;-81
2023/09/23 00:58:19;;;;;;;16.90;6.83;;;;;;;21.02;100.00;99751.95;1457143;89;21456;-81
2023/09/23 01:00:48;;;;;;;22.55;8.53;;;;;;;20.99;100.00;99745.16;1455935;88;21441;-81
2023/09/23 01:03:13;;;;;;;31.80;7.08;;;;;;;20.97;100.00;99744.56;1456808;89;22493;-81
2023/09/23 01:05:40;;;;;;;21.17;6.83;;;;;;;20.97;100.00;99747.26;1458862;89;21345;-81
2023/09/23 01:08:20;;;;;;;21.20;7.55;;;;;;;20.99;100.00;99745.16;1453362;88;21590;-81
2023/09/23 01:10:35;;;;;;;24.40;7.00;;;;;;;21.00;100.00;99739.25;1453435;89;21471;-80
2023/09/23 01:13:01;;;;;;;20.45;7.37;;;;;;;21.00;100.00;99737.38;1452354;88;21590;-81
2023/09/23 01:15:31;;;;;;;29.87;8.28;;;;;;;21.01;100.00;99729.62;1460053;88;21397;-81
2023/09/23 01:17:56;;;;;;;21.95;7.33;;;;;;;21.01;100.00;99727.46;1440254;89;21608;-81
2023/09/23 01:20:23;;;;;;;23.15;7.87;;;;;;;20.97;100.00;99719.02;1460552;89;21628;-80
2023/09/23 01:22:49;;;;;;;31.10;10.45;;;;;;;20.95;100.00;99710.38;1465373;88;21493;-81
2023/09/23 01:25:17;;;;;;;22.67;7.17;;;;;;;20.91;100.00;99710.00;1467291;88;21405;-81
2023/09/23 01:27:43;;;;;;;23.55;7.00;;;;;;;20.88;100.00;99711.00;1460839;88;21390;-81
2023/09/23 01:30:12;;;;;;;16.37;6.03;;;;;;;20.85;100.00;99719.53;1454351;88;21331;-81
2023/09/23 01:32:45;;;;;;;28.17;9.38;;;;;;;20.85;100.00;99720.88;1458123;88;21877;-81
2023/09/23 01:35:20;;;;;;;25.37;7.55;;;;;;;20.82;100.00;99727.54;1450925;89;22256;-80
2023/09/23 01:37:48;;;;;;;20.85;9.38;;;;;;;20.81;100.00;99730.48;1456874;88;21308;-82
2023/09/23 01:40:17;;;;;;;18.32;7.37;;;;;;;20.76;100.00;99727.13;1452338;88;22278;-80
2023/09/23 01:42:48;;;;;;;20.30;7.35;;;;;;;20.72;100.00;99731.34;1460598;89;21524;-82
2023/09/23 01:45:15;;;;;;;20.17;7.58;;;;;;;20.66;100.00;99741.14;1459891;88;21390;-82
2023/09/23 01:47:42;;;;;;;21.48;7.10;;;;;;;20.62;100.00;99743.16;1457748;89;21353;-82
2023/09/23 01:50:10;;;;;;;24.18;6.37;;;;;;;20.61;100.00;99741.01;1462649;88;21463;-82
2023/09/23 01:52:40;;;;;;;24.07;9.23;;;;;;;20.61;100.00;99741.01;1452126;88;22424;-82
2023/09/23 01:55:10;;;;;;;26.35;8.23;;;;;;;20.60;100.00;99742.06;1457018;89;22367;-81
2023/09/23 01:57:36;;;;;;;27.13;7.92;;;;;;;20.59;100.00;99743.09;1464582;89;21449;-81
2023/09/23 02:00:07;;;;;;;24.72;7.58;;;;;;;20.56;100.00;99745.44;1458938;88;21412;-82
2023/09/23 02:02:32;;;;;;;22.13;7.35;;;;;;;20.50;100.00;99741.23;1458402;89;21500;-81
2023/09/23 02:04:58;;;;;;;24.77;8.33;;;;;;;20.44;100.00;99744.84;1459382;88;22411;-82
2023/09/23 02:07:26;;;;;;;22.85;6.95;;;;;;;20.41;100.00;99749.86;1453311;88;21427;-82
2023/09/23 02:09:53;;;;;;;25.95;7.70;;;;;;;20.37;100.00;99754.03;1460244;88;21323;-81
2023/09/23 02:12:21;;;;;;;26.12;7.65;;;;;;;20.34;100.00;99764.74;1438434;89;21859;-82
2023/09/23 02:14:47;;;;;;;24.80;7.75;;;;;;;20.33;100.00;99764.95;1460914;89;22406;-82
2023/09/23 02:17:13;;;;;;;20.65;8.10;;;;;;;20.27;100.00;99775.55;1459489;88;21733;-82
2023/09/23 02:19:40;;;;;;;21.93;8.68;;;;;;;20.18;100.00;99788.20;1459467;88;21495;-82
2023/09/23 02:22:06;;;;;;;24.63;7.33;;;;;;;20.02;100.00;99808.41;1442586;89;22306;-82
2023/09/23 02:24:36;;;;;;;26.77;7.87;;;;;;;19.83;100.00;99822.38;1459616;89;21442;-82
2023/09/23 02:27:03;;;;;;;20.82;7.20;;;;;;;19.65;100.00;99824.53;1455096;89;22336;-81
2023/09/23 02:29:31;;;;;;;23.42;7.12;;;;;;;19.57;100.00;99821.57;1458509;89;21714;-82
2023/09/23 02:31:58;;;;;;;26.97;7.17;;;;;;;19.56;100.00;99813.72;1461989;88;22337;-81
2023/09/23 02:34:24;;;;;;;17.98;7.83;;;;;;;19.52;100.00;99795.09;1459999;89;22473;-82
2023/09/23 02:36:50;;;;;;;18.87;8.30;;;;;;;19.47;100.00;99797.61;1453346;88;22395;-81
2023/09/23 02:39:20;;;;;;;24.37;8.45;;;;;;;19.41;100.00;99813.26;1444821;89;21390;-82
2023/09/23 02:41:49;;;;;;;24.43;9.90;;;;;;;19.31;100.00;99820.47;1460418;88;21434;-81
2023/09/23 02:44:20;;;;;;;26.65;8.80;;;;;;;19.19;100.00;99824.39;1459785;89;21494;-81
2023/09/23 02:46:46;;;;;;;16.05;6.37;;;;;;;19.11;100.00;99829.49;1455745;88;21352;-82
2023/09/23 02:49:14;;;;;;;24.10;7.47;;;;;;;19.07;100.00;99823.43;1458511;89;21397;-81
2023/09/23 02:51:42;;;;;;;16.95;6.53;;;;;;;19.03;100.00;99818.21;1457563;88;22489;-82
2023/09/23 02:54:11;;;;;;;18.17;6.70;;;;;;;18.99;100.00;99826.37;1457709;89;21553;-82
2023/09/23 02:56:37;;;;;;;17.77;7.58;;;;;;;18.85;100.00;99830.50;1458527;89;21289;-82
2023/09/23 02:59:11;;;;;;;23.27;7.67;;;;;;;18.73;100.00;99836.23;1459464;89;21523;-81
2023/09/23 03:01:33;;;;;;;15.85;7.12;;;;;;;18.67;100.00;99833.88;1456259;89;22513;-81
2023/09/23 03:04:06;;;;;;;16.87;7.08;;;;;;;18.67;100.00;99829.86;1440315;89;21504;-82
2023/09/23 03:06:28;;;;;;;24.15;8.20;;;;;;;18.67;100.00;99824.50;1455758;89;22492;-82
2023/09/23 03:08:58;;;;;;;21.97;8.13;;;;;;;18.63;100.00;99821.11;1461873;88;21456;-83
2023/09/23 03:11:26;;;;;;;32.50;7.37;;;;;;;18.60;100.00;99828.25;1455177;89;21600;-83
2023/09/23 03:13:52;;;;;;;17.60;6.67;;;;;;;18.52;100.00;99827.15;1462603;89;21389;-82
2023/09/23 03:16:28;;;;;;;20.75;6.67;;;;;;;18.45;100.00;99837.39;1459131;89;21390;-83
2023/09/23 03:19:10;;;;;;;17.92;7.35;;;;;;;18.41;100.00;99832.66;1457671;89;21611;-83
2023/09/23 03:21:24;;;;;;;13.53;7.00;;;;;;;18.41;100.00;99821.45;1455019;89;21618;-83
2023/09/23 03:23:50;;;;;;;22.15;7.72;;;;;;;18.43;100.00;99823.38;1459294;89;21390;-81
2023/09/23 03:26:19;;;;;;;32.35;17.23;;;;;;;18.41;100.00;99825.47;1454951;88;21742;-80
2023/09/23 03:28:46;;;;;;;52.30;33.85;;;;;;;18.41;100.00;99830.83;1454257;88;21368;-80
2023/09/23 03:31:14;;;;;;;72.30;45.90;;;;;;;18.36;100.00;99822.59;1434230;89;22403;-81
2023/09/23 03:33:42;;;;;;;49.88;30.70;;;;;;;18.32;100.00;99824.05;1455038;88;21441;-81
2023/09/23 03:36:16;;;;;;;21.82;8.53;;;;;;;18.28;100.00;99827.38;1453009;89;22394;-81
2023/09/23 03:38:42;;;;;;;17.35;7.78;;;;;;;18.23;100.00;99833.36;1462610;88;22388;-81
2023/09/23 03:41:11;;;;;;;23.85;9.95;;;;;;;18.18;100.00;99836.69;1457483;88;21564;-80
2023/09/23 03:43:39;;;;;;;20.80;10.88;;;;;;;18.14;100.00;99829.27;1454335;89;21382;-81
2023/09/23 03:46:14;;;;;;;25.50;15.20;;;;;;;18.11;100.00;99827.02;1459642;88;21532;-82
2023/09/23 03:48:40;;;;;;;25.77;12.23;;;;;;;18.10;100.00;99831.56;1453734;89;21958;-84
2023/09/23 03:51:09;;;;;;;20.15;9.80;;;;;;;18.08;100.00;99830.94;1458535;88;21382;-80
2023/09/23 03:53:36;;;;;;;26.97;9.83;;;;;;;18.09;100.00;99831.76;1455328;89;21508;-80
2023/09/23 03:56:03;;;;;;;21.02;9.20;;;;;;;18.11;100.00;99831.04;1461702;88;21353;-81
2023/09/23 03:58:30;;;;;;;23.35;7.90;;;;;;;18.11;100.00;99823.00;1463300;89;21490;-81
2023/09/23 04:00:58;;;;;;;20.95;10.40;;;;;;;18.12;100.00;99819.28;1454901;88;22305;-80
2023/09/23 04:03:24;;;;;;;28.13;11.33;;;;;;;18.11;100.00;99811.77;1434472;89;22418;-81
2023/09/23 04:05:57;;;;;;;29.95;10.45;;;;;;;18.09;100.00;99807.66;1457989;88;21324;-81
2023/09/23 04:08:24;;;;;;;24.30;9.20;;;;;;;18.07;100.00;99811.05;1458591;88;22322;-79
2023/09/23 04:10:51;;;;;;;24.43;8.88;;;;;;;18.06;100.00;99820.13;1457855;88;21575;-81
2023/09/23 04:13:17;;;;;;;24.85;9.38;;;;;;;18.04;100.00;99826.53;1459048;88;21396;-81
2023/09/23 04:15:43;;;;;;;23.00;8.37;;;;;;;18.03;100.00;99839.59;1457534;88;21505;-80
2023/09/23 04:18:11;;;;;;;16.80;8.30;;;;;;;18.05;100.00;99824.67;1459742;88;22388;-78
2023/09/23 04:20:37;;;;;;;21.75;8.33;;;;;;;18.03;100.00;99822.71;1460863;88;21523;-79
2023/09/23 04:23:04;;;;;;;25.90;7.67;;;;;;;18.03;100.00;99815.50;1455199;88;21588;-79
2023/09/23 04:25:30;;;;;;;27.05;8.78;;;;;;;18.06;100.00;99826.83;1454513;89;21420;-80
2023/09/23 04:27:57;;;;;;;23.92;9.40;;;;;;;18.07;100.00;99834.66;1434021;89;21435;-80
2023/09/23 04:30:25;;;;;;;16.67;8.58;;;;;;;18.07;100.00;99840.52;1457657;88;21427;-80
2023/09/23 04:32:51;;;;;;;21.10;7.70;;;;;;;18.07;100.00;99836.49;1461668;89;21360;-80
2023/09/23 04:35:17;;;;;;;21.70;7.53;;;;;;;18.10;100.00;99846.81;1457224;89;21309;-80
2023/09/23 04:37:44;;;;;;;19.57;8.15;;;;;;;18.12;100.00;99856.25;1438121;89;21383;-80
2023/09/23 04:40:13;;;;;;;26.17;8.25;;;;;;;18.14;100.00;99866.77;1456946;88;21345;-79
2023/09/23 04:42:41;;;;;;;26.20;7.75;;;;;;;18.17;100.00;99882.41;1466314;88;21582;-80
2023/09/23 04:45:09;;;;;;;26.07;8.18;;;;;;;18.14;100.00;99874.80;1458153;88;21390;-79
2023/09/23 04:47:36;;;;;;;23.07;9.85;;;;;;;18.16;100.00;99882.12;1454577;89;22312;-79
2023/09/23 04:50:07;;;;;;;13.37;6.90;;;;;;;18.15;100.00;99881.79;1457967;88;21486;-79
2023/09/23 04:52:34;;;;;;;19.17;7.40;;;;;;;18.15;100.00;99900.53;1456569;89;21440;-79
2023/09/23 04:55:02;;;;;;;24.40;7.70;;;;;;;18.14;100.00;99897.56;1459502;88;21994;-80
2023/09/23 04:57:29;;;;;;;21.95;8.05;;;;;;;18.17;100.00;99902.50;1457583;89;22418;-80
2023/09/23 04:59:57;;;;;;;18.62;7.28;;;;;;;18.20;100.00;99906.09;1460446;88;21375;-80
2023/09/23 05:02:23;;;;;;;19.07;8.03;;;;;;;18.28;100.00;99908.55;1456640;88;21664;-78
2023/09/23 05:04:53;;;;;;;18.45;8.53;;;;;;;18.34;100.00;99909.05;1458013;88;21390;-79
2023/09/23 05:07:26;;;;;;;23.77;9.35;;;;;;;18.39;100.00;99909.23;1455911;88;21427;-80
2023/09/23 05:09:56;;;;;;;20.68;7.92;;;;;;;18.42;100.00;99908.81;1459366;89;21346;-87
2023/09/23 05:12:24;;;;;;;20.85;8.00;;;;;;;18.45;100.00;99911.59;1449931;88;21839;-88
2023/09/23 05:14:51;;;;;;;23.85;7.62;;;;;;;18.47;100.00;99925.09;1451602;89;21545;-88
2023/09/23 05:20:41;;;;;;;16.97;7.15;;;;;;;18.55;100.00;99927.21;1456330;89;21552;-89
2023/09/23 05:23:07;;;;;;;29.82;9.18;;;;;;;18.60;100.00;99936.27;1458367;88;21568;-87
2023/09/23 05:25:35;;;;;;;20.70;8.63;;;;;;;18.67;100.00;99949.63;1456257;88;22825;-87
2023/09/23 05:28:04;;;;;;;19.77;7.40;;;;;;;18.71;100.00;99958.39;1456101;88;21589;-88
2023/09/23 05:30:30;;;;;;;19.30;7.85;;;;;;;18.74;100.00;99961.19;1462195;88;21478;-89
2023/09/23 05:32:56;;;;;;;25.08;8.63;;;;;;;18.78;100.00;99958.38;1457945;88;21501;-88
2023/09/23 05:35:23;;;;;;;21.12;8.53;;;;;;;18.83;100.00;99967.95;1457532;88;22249;-89
2023/09/23 05:37:51;;;;;;;30.65;9.38;;;;;;;18.87;100.00;99970.53;1458874;88;21582;-87
2023/09/23 05:40:26;;;;;;;19.05;8.80;;;;;;;18.93;100.00;99974.19;1459912;88;21375;-88
2023/09/23 05:42:50;;;;;;;14.20;6.50;;;;;;;18.99;100.00;99984.58;1458862;89;22329;-91
2023/09/23 05:45:17;;;;;;;22.93;8.40;;;;;;;19.03;100.00;99981.80;1382512;89;21391;-90
2023/09/23 05:47:45;;;;;;;33.35;8.88;;;;;;;19.10;100.00;99970.50;1452636;88;21412;-85
2023/09/23 05:50:12;;;;;;;27.60;8.25;;;;;;;19.18;100.00;99988.22;1455119;89;21435;-86
2023/09/23 05:52:39;;;;;;;21.02;8.65;;;;;;;19.24;100.00;100006.95;1454718;88;21556;-87
2023/09/23 05:55:07;;;;;;;22.17;8.05;;;;;;;19.33;100.00;100017.77;1460212;89;21412;-90
2023/09/23 05:57:41;;;;;;;20.68;7.80;;;;;;;19.44;100.00;100027.49;1462229;88;21316;-86
2023/09/23 06:00:10;;;;;;;29.52;8.40;;;;;;;19.58;100.00;100045.16;1464088;89;21471;-87
2023/09/23 06:02:38;;;;;;;36.30;8.60;;;;;;;19.74;100.00;100043.34;1455432;88;21354;-88
2023/09/23 06:05:05;;;;;;;20.02;7.65;;;;;;;19.92;100.00;100037.22;1459695;88;21531;-87
2023/09/23 06:07:31;;;;;;;29.23;7.65;;;;;;;20.10;100.00;100010.11;1456226;88;22286;-87
2023/09/23 06:09:59;;;;;;;39.75;8.60;;;;;;;20.28;100.00;99982.78;1457433;88;22315;-87
2023/09/23 06:12:30;;;;;;;25.45;8.03;;;;;;;20.45;100.00;99952.61;1460866;88;21529;-86
2023/09/23 06:15:01;;;;;;;34.55;8.08;;;;;;;20.61;100.00;99907.69;1459138;89;22024;-86
2023/09/23 06:17:28;;;;;;;;;;;;;;;20.79;100.00;99874.56;1458788;89;21450;-86
2023/09/23 06:19:59;;;;;;;35.70;7.28;;;;;;;20.94;100.00;99841.37;1458226;88;20999;-86
2023/09/23 06:22:27;;;;;;;25.77;6.90;;;;;;;21.10;100.00;99850.63;1469273;88;21376;-86
2023/09/23 06:24:54;;;;;;;31.82;7.70;;;;;;;21.30;100.00;99864.30;1460695;88;22963;-87
2023/09/23 06:27:21;;;;;;;24.80;8.50;;;;;;;21.48;100.00;99864.23;1457104;88;21375;-86
2023/09/23 06:29:47;;;;;;;33.70;7.97;;;;;;;21.67;100.00;99843.41;1460414;88;21390;-86
2023/09/23 06:32:13;;;;;;;18.02;7.45;;;;;;;21.85;100.00;99850.00;1455553;89;21553;-86
2023/09/23 06:34:40;;;;;;;23.18;8.03;;;;;;;22.05;100.00;99847.47;1458737;89;21493;-86
2023/09/23 06:37:06;;;;;;;26.73;7.25;;;;;;;22.24;100.00;99841.41;1460146;88;22480;-86
2023/09/23 06:39:32;;;;;;;30.93;8.43;;;;;;;22.35;100.00;99858.08;1460583;89;21390;-89
2023/09/23 06:41:59;;;;;;;25.55;7.50;;;;;;;22.43;100.00;99892.77;1441665;89;21552;-87
2023/09/23 06:44:25;;;;;;;33.55;7.05;;;;;;;22.49;100.00;99916.07;1463676;89;21359;-89
2023/09/23 06:46:51;;;;;;;40.00;8.13;;;;;;;22.50;100.00;99923.13;1456009;88;21390;-88
2023/09/23 06:49:20;;;;;;;32.88;7.35;;;;;;;22.51;100.00;99923.40;1455330;89;21613;-86
2023/09/23 06:51:46;;;;;;;38.02;9.73;;;;;;;22.53;100.00;99917.25;1459142;88;21383;-86
2023/09/23 06:54:12;;;;;;;40.23;7.85;;;;;;;22.58;100.00;99921.91;1461271;89;21531;-86
2023/09/23 06:56:39;;;;;;;32.20;9.58;;;;;;;22.62;100.00;99922.27;1459354;88;21405;-86
2023/09/23 06:59:05;;;;;;;28.02;8.40;;;;;;;22.66;100.00;99949.05;1458024;88;21511;-87
2023/09/23 07:01:34;;;;;;;54.63;8.10;;;;;;;22.70;100.00;99956.43;1455536;88;21516;-85
2023/09/23 07:04:01;;;;;;;27.42;6.83;;;;;;;22.74;100.00;99964.86;1464193;89;21516;-87
2023/09/23 07:06:27;;;;;;;31.97;7.37;;;;;;;22.79;100.00;99967.67;1459682;89;21324;-89
2023/09/23 07:08:53;;;;;;;36.50;8.08;;;;;;;22.84;100.00;99963.70;1457129;88;21338;-89
2023/09/23 07:11:20;;;;;;;42.10;6.83;;;;;;;22.87;100.00;99963.25;1441494;89;21516;-89
2023/09/23 07:13:46;;;;;;;34.80;8.33;;;;;;;22.89;100.00;99963.80;1461342;89;21398;-90
2023/09/23 07:16:14;;;;;;;28.55;6.90;;;;;;;22.92;100.00;99960.63;1461288;88;21450;-89
2023/09/23 07:18:41;;;;;;;26.42;7.35;;;;;;;22.95;100.00;99968.27;1464800;89;21435;-90
2023/09/23 07:21:08;;;;;;;34.50;8.20;;;;;;;23.00;100.00;99962.16;1441143;89;21442;-90
2023/09/23 07:23:34;;;;;;;34.27;6.35;;;;;;;23.03;100.00;99964.38;1454431;88;21427;-89
2023/09/23 07:26:07;;;;;;;20.85;6.33;;;;;;;23.09;100.00;99965.30;1439006;89;21382;-85
2023/09/23 07:28:34;;;;;;;46.35;9.35;;;;;;;23.14;100.00;99979.70;1461365;89;21361;-89
2023/09/23 07:31:01;;;;;;;27.75;7.55;;;;;;;23.20;100.00;99986.02;1459465;88;21523;-87
2023/09/23 07:33:28;;;;;;;31.35;8.13;;;;;;;23.26;100.00;99993.69;1454956;88;21406;-89
2023/09/23 07:35:54;;;;;;;44.18;7.87;;;;;;;23.32;100.00;100005.68;1459192;88;21546;-88
2023/09/23 07:38:21;;;;;;;39.58;7.58;;;;;;;23.39;100.00;100011.77;1463937;88;21368;-88
2023/09/23 07:40:50;;;;;;;34.05;8.48;;;;;;;23.43;100.00;100012.09;1453183;88;21330;-86
2023/09/23 07:43:17;;;;;;;57.85;8.78;;;;;;;23.47;100.00;100015.94;1447577;89;21655;-90
2023/09/23 07:45:43;;;;;;;25.72;7.10;;;;;;;23.52;100.00;100026.03;1459740;88;22887;-88
2023/09/23 07:48:09;;;;;;;26.55;7.03;;;;;;;23.57;100.00;100034.23;1453420;88;21561;-88
2023/09/23 07:50:41;;;;;;;28.35;7.22;;;;;;;23.63;100.00;100042.70;1451053;89;21481;-89
2023/09/23 07:53:07;;;;;;;36.83;8.23;;;;;;;23.70;100.00;100062.30;1460046;88;21309;-90
2023/09/23 07:55:34;;;;;;;24.02;6.75;;;;;;;23.78;100.00;100060.56;1457846;88;22455;-88
2023/09/23 07:58:01;;;;;;;25.75;6.90;;;;;;;23.87;100.00;100056.39;1455422;88;21382;-90
2023/09/23 08:00:27;;;;;;;29.45;7.35;;;;;;;23.92;100.00;100050.80;1462137;88;21538;-88
2023/09/23 08:02:53;;;;;;;29.45;6.28;;;;;;;23.97;100.00;100046.84;1458415;88;21361;-90
2023/09/23 08:05:23;;;;;;;28.35;6.40;;;;;;;24.04;100.00;100060.99;1442712;89;22441;-89
2023/09/23 08:07:48;;;;;;;20.12;6.65;;;;;;;24.09;100.00;100074.60;1458253;89;21360;-90
2023/09/23 08:10:15;;;;;;;20.40;6.33;;;;;;;24.16;100.00;100087.41;1459019;89;21428;-90
2023/09/23 08:12:42;;;;;;;20.27;6.72;;;;;;;24.26;100.00;100088.94;1465681;89;21324;-84
2023/09/23 08:15:11;;;;;;;25.25;6.10;;;;;;;24.30;100.00;100090.07;1443093;89;21582;-88
2023/09/23 08:17:40;;;;;;;28.52;6.42;;;;;;;24.36;100.00;100092.33;1456422;89;21635;-90
2023/09/23 08:20:17;;;;;;;29.07;6.62;;;;;;;24.40;100.00;100092.64;1462720;88;22373;-89
2023/09/23 08:22:42;;;;;;;20.92;6.90;;;;;;;24.45;100.00;100095.47;1464405;89;21456;-86
2023/09/23 08:25:09;;;;;;;23.00;6.22;;;;;;;24.49;100.00;100102.04;1460049;88;22292;-89
2023/09/23 08:27:35;;;;;;;19.65;5.12;;;;;;;24.51;99.89;100113.41;1443194;89;22447;-93
2023/09/23 08:30:02;;;;;;;19.27;4.83;;;;;;;24.52;98.31;100113.72;1451374;88;21427;-89
2023/09/23 08:32:28;;;;;;;16.52;5.35;;;;;;;24.51;97.13;100128.28;1454244;88;21527;-89
2023/09/23 08:34:54;;;;;;;23.73;6.10;;;;;;;24.55;95.15;100121.33;1457559;88;21526;-84
2023/09/23 08:37:20;;;;;;;19.32;4.40;;;;;;;24.56;91.96;100120.26;1454255;88;21405;-89
2023/09/23 08:39:47;;;;;;;21.20;6.08;;;;;;;24.47;90.06;100129.86;1442419;89;21596;-85
2023/09/23 08:42:17;;;;;;;18.45;4.97;;;;;;;24.37;91.12;100126.95;1438866;89;21413;-86
2023/09/23 08:44:43;;;;;;;20.08;5.42;;;;;;;24.29;91.03;100139.83;1437752;89;21529;-86
2023/09/23 08:47:11;;;;;;;23.95;5.47;;;;;;;24.17;90.85;100151.76;1458322;88;21512;-86
2023/09/23 08:49:41;;;;;;;17.70;4.90;;;;;;;24.03;91.17;100172.89;1435757;89;21383;-86
2023/09/23 08:52:09;;;;;;;21.37;5.80;;;;;;;23.94;91.95;100191.89;1459066;88;21456;-86
2023/09/23 08:54:36;;;;;;;21.45;6.62;;;;;;;23.80;92.90;100198.95;1454182;89;22365;-86
2023/09/23 08:57:02;;;;;;;20.75;5.45;;;;;;;23.73;93.47;100213.11;1461694;88;21597;-85
2023/09/23 08:59:30;;;;;;;27.73;5.35;;;;;;;23.63;94.08;100212.36;1459501;88;21456;-85
2023/09/23 09:01:56;;;;;;;24.18;5.87;;;;;;;23.55;94.57;100208.67;1457091;88;21272;-85
2023/09/23 09:04:24;;;;;;;22.30;5.28;;;;;;;23.49;94.87;100201.52;1462947;88;22396;-86
2023/09/23 09:06:54;;;;;;;32.70;6.50;;;;;;;23.39;95.02;100189.98;1455188;88;21419;-86
2023/09/23 09:09:20;;;;;;;22.30;7.08;;;;;;;23.30;95.39;100207.59;1454301;89;21464;-86
2023/09/23 09:11:49;;;;;;;34.05;14.53;;;;;;;23.22;96.38;100214.73;1464318;88;21559;-86
2023/09/23 09:14:16;;;;;;;36.38;12.07;;;;;;;23.23;96.94;100211.48;1442076;89;21523;-84
2023/09/23 09:16:43;;;;;;;23.50;9.70;;;;;;;23.22;97.00;100224.17;1459967;88;21475;-85
2023/09/23 09:19:09;;;;;;;16.62;7.15;;;;;;;23.23;96.72;100215.00;1459863;89;21489;-87
2023/09/23 09:21:36;;;;;;;27.55;7.87;;;;;;;23.21;96.83;100203.61;1465377;89;21471;-86
2023/09/23 09:27:27;;;;;;;15.53;5.05;;;;;;;23.20;96.68;100218.18;1458614;88;21503;-86
2023/09/23 09:29:54;;;;;;;20.02;6.95;;;;;;;23.27;96.87;100218.86;1459468;88;21447;-86
2023/09/23 09:32:26;;;;;;;26.97;7.30;;;;;;;23.33;96.96;100225.20;1461358;88;21316;-87
2023/09/23 09:34:54;;;;;;;20.57;5.58;;;;;;;23.41;96.92;100228.36;1457317;89;21382;-86
2023/09/23 09:37:25;;;;;;;18.48;5.17;;;;;;;23.51;96.11;100225.61;1458820;88;21427;-86
2023/09/23 09:39:58;;;;;;;25.52;7.30;;;;;;;23.62;95.98;100220.69;1434229;89;21316;-88
2023/09/23 09:42:30;;;;;;;19.75;5.40;;;;;;;23.85;95.62;100215.77;1453757;88;21367;-87
2023/09/23 09:44:58;;;;;;;14.33;3.87;;;;;;;24.04;94.37;100210.48;1460592;88;21545;-87
2023/09/23 09:47:24;;;;;;;20.12;5.90;;;;;;;24.08;92.69;100215.70;1462561;88;22278;-86
2023/09/23 09:49:56;;;;;;;13.60;4.25;;;;;;;24.07;90.93;100222.70;1460731;89;21383;-86
2023/09/23 09:52:22;;;;;;;17.05;3.40;;;;;;;24.01;91.85;100218.26;1460474;89;22329;-87
2023/09/23 09:54:55;;;;;;;12.40;4.00;;;;;;;24.00;91.34;100211.22;1457622;89;21433;-87
2023/09/23 09:57:23;;;;;;;12.23;5.58;;;;;;;24.00;91.39;100217.98;1429896;90;21449;-87
2023/09/23 09:59:51;;;;;;;18.20;4.65;;;;;;;24.04;91.53;100209.66;1447882;90;21397;-86
2023/09/23 10:02:18;;;;;;;15.72;3.83;;;;;;;24.17;90.83;100200.42;1461092;88;21360;-88
2023/09/23 10:04:53;;;;;;;11.15;4.08;;;;;;;24.36;90.32;100199.69;1435424;89;21552;-89
2023/09/23 10:07:16;;;;;;;15.95;4.30;;;;;;;24.57;88.94;100183.29;1463292;89;21361;-87
2023/09/23 10:09:58;;;;;;;12.55;4.17;;;;;;;24.64;87.57;100190.19;1460256;88;21383;-88
2023/09/23 10:12:25;;;;;;;17.75;4.97;;;;;;;24.70;87.43;100177.02;1434650;89;22453;-86
2023/09/23 10:14:56;;;;;;;16.57;3.95;;;;;;;24.81;87.54;100178.55;1438703;89;22471;-86
2023/09/23 10:17:32;;;;;;;12.82;4.33;;;;;;;24.94;86.50;100179.00;1459478;88;21699;-86
2023/09/23 10:20:00;;;;;;;12.82;3.92;;;;;;;25.08;86.11;100178.66;1457007;89;21412;-87
2023/09/23 10:22:30;;;;;;;17.45;5.70;;;;;;;25.19;86.19;100178.58;1462275;88;22247;-87
2023/09/23 10:25:11;;;;;;;13.78;4.80;;;;;;;25.36;86.70;100180.42;1461593;88;21352;-86
2023/09/23 10:27:32;;;;;;;23.70;4.30;;;;;;;25.53;86.13;100172.23;1461631;89;22380;-86
2023/09/23 10:30:03;;;;;;;10.75;4.05;;;;;;;25.74;85.82;100165.97;1460348;89;22322;-86
2023/09/23 10:32:30;;;;;;;15.20;4.62;;;;;;;25.92;84.82;100162.13;1463564;89;21353;-83
2023/09/23 10:34:56;;;;;;;18.48;3.83;;;;;;;26.05;83.08;100154.94;1460655;88;21463;-84
2023/09/23 10:37:32;;;;;;;16.05;3.90;;;;;;;26.20;81.24;100155.62;1460963;88;21361;-86
2023/09/23 10:40:12;;;;;;;15.13;4.65;;;;;;;26.34;81.63;100142.45;1460321;88;21375;-86
2023/09/23 10:42:37;;;;;;;13.88;4.17;;;;;;;26.45;80.67;100148.23;1436789;89;21500;-83
2023/09/23 10:45:05;;;;;;;16.85;4.03;;;;;;;26.51;77.92;100146.42;1467833;89;21560;-87
2023/09/23 10:47:31;;;;;;;13.15;4.15;;;;;;;26.52;77.66;100136.64;1460584;89;21397;-86
2023/09/23 10:49:59;;;;;;;10.25;3.50;;;;;;;26.59;77.35;100128.84;1441510;89;21552;-87
2023/09/23 10:52:25;;;;;;;14.38;4.00;;;;;;;26.66;76.95;100125.34;1451378;89;22271;-88
2023/09/23 10:54:53;;;;;;;22.85;4.67;;;;;;;26.68;76.58;100120.48;1463635;88;22322;-87
2023/09/23 10:57:20;;;;;;;18.42;3.75;;;;;;;26.66;76.06;100115.85;1461552;88;21419;-87
2023/09/23 10:59:47;;;;;;;9.50;3.87;;;;;;;26.65;76.62;100118.30;1434793;89;21397;-86
2023/09/23 11:02:13;;;;;;;12.03;4.78;;;;;;;26.65;76.21;100118.30;1463477;88;21531;-86
2023/09/23 11:04:42;;;;;;;10.10;4.00;;;;;;;26.65;75.60;100116.39;1453096;89;22330;-85
2023/09/23 11:07:08;;;;;;;13.68;4.25;;;;;;;26.65;75.64;100116.39;1442073;89;22447;-87
2023/09/23 11:09:36;;;;;;;10.78;3.27;;;;;;;26.69;75.16;100112.06;1456651;88;21538;-87
2023/09/23 11:12:13;;;;;;;13.32;3.58;;;;;;;26.72;74.74;100114.25;1458810;88;21368;-86
2023/09/23 11:14:46;;;;;;;15.20;3.85;;;;;;;26.80;74.14;100112.14;1431422;89;22307;-85
2023/09/23 11:17:26;;;;;;;18.92;4.60;;;;;;;26.89;74.07;100114.63;1457202;89;21368;-86
2023/09/23 11:20:00;;;;;;;13.20;4.45;;;;;;;27.01;73.50;100107.89;1456669;88;22374;-86
2023/09/23 11:22:28;;;;;;;8.98;3.02;;;;;;;27.16;73.36;100106.36;1447694;89;21442;-86
2023/09/23 11:24:57;;;;;;;12.30;3.85;;;;;;;27.15;71.76;100106.91;1452449;89;21375;-87
2023/09/23 11:27:26;;;;;;;11.55;3.95;;;;;;;27.16;70.61;100093.63;1469170;89;21567;-87